Time,TemperatureF,DewpointF,PressureIn,WindDirection,WindDirectionDegrees,WindSpeedMPH,WindSpeedGustMPH,Humidity,HourlyPrecipIn,Conditions,Clouds,dailyrainin,SoftwareType,DateUTC
2013-09-01 07:38:00,49.1,46.3,29.44,SSE,158,0.0,0.0,90,0.00,,,0.00,WUHU216HW,2013-09-01 15:38:00,
2013-09-01 07:43:00,49.2,46.7,29.44,SSE,158,0.0,0.0,91,0.00,,,0.00,WUHU216HW,2013-09-01 15:43:00,
2013-09-01 07:48:00,49.2,46.7,29.43,SSE,158,0.0,0.0,91,0.00,,,0.00,WUHU216HW,2013-09-01 15:48:00,
2013-09-01 07:53:00,49.2,46.7,29.43,SSE,158,0.4,0.4,91,0.00,,,0.00,WUHU216HW,2013-09-01 15:53:00,
2013-09-01 07:58:00,49.6,47.0,29.43,SSE,158,0.0,0.4,91,0.00,,,0.00,WUHU216HW,2013-09-01 15:58:00,
2013-09-01 08:03:00,49.8,47.2,29.43,SSE,158,0.0,0.0,91,0.00,,,0.00,WUHU216HW,2013-09-01 16:03:00,
2013-09-01 08:08:00,49.8,47.2,29.43,SSE,158,0.0,0.0,91,0.00,,,0.00,WUHU216HW,2013-09-01 16:08:00,
2013-09-01 08:13:00,49.8,47.2,29.43,SSE,158,0.0,0.0,91,0.00,,,0.00,WUHU216HW,2013-09-01 16:13:00,
2013-09-01 08:18:00,50.0,47.4,29.43,SSE,158,0.0,0.0,91,0.00,,,0.00,WUHU216HW,2013-09-01 16:18:00,
2013-09-01 08:23:00,50.1,47.5,29.43,SSE,158,0.0,0.0,91,0.00,,,0.00,WUHU216HW,2013-09-01 16:23:00,
2013-09-01 08:28:00,50.3,47.7,29.42,SSE,158,0.0,0.0,91,0.00,,,0.00,WUHU216HW,2013-09-01 16:28:00,
2013-09-01 08:33:00,50.7,48.1,29.42,SSE,158,0.0,0.0,91,0.00,,,0.00,WUHU216HW,2013-09-01 16:33:00,
2013-09-01 08:38:00,50.7,48.1,29.42,SSE,158,0.0,0.0,91,0.00,,,0.00,WUHU216HW,2013-09-01 16:38:00,
2013-09-01 08:43:00,50.7,48.3,29.42,SSE,158,0.0,0.0,91,0.00,,,0.00,WUHU216HW,2013-09-01 16:43:00,
2013-09-01 08:48:00,51.0,48.4,29.42,SSE,158,0.0,0.0,91,0.00,,,0.00,WUHU216HW,2013-09-01 16:48:00,
2013-09-01 08:53:00,51.2,48.6,29.42,SSE,158,0.0,0.0,91,0.00,,,0.00,WUHU216HW,2013-09-01 16:53:00,
2013-09-01 08:58:00,51.6,48.8,29.43,SSE,158,0.0,0.0,91,0.00,,,0.00,WUHU216HW,2013-09-01 16:58:00,
2013-09-01 09:03:00,51.6,49.0,29.43,SSE,158,0.0,0.0,91,0.00,,,0.00,WUHU216HW,2013-09-01 17:03:00,
2013-09-01 09:08:00,51.9,49.3,29.43,SSE,158,0.0,0.0,91,0.00,,,0.00,WUHU216HW,2013-09-01 17:08:00,
2013-09-01 09:13:00,52.3,49.7,29.43,SSE,158,0.0,0.0,91,0.00,,,0.00,WUHU216HW,2013-09-01 17:13:00,
2013-09-01 09:18:00,52.5,49.6,29.43,SSE,158,0.0,0.0,90,0.00,,,0.00,WUHU216HW,2013-09-01 17:18:00,
2013-09-01 09:23:00,52.7,49.8,29.43,SSE,158,0.0,0.0,90,0.00,,,0.00,WUHU216HW,2013-09-01 17:23:00,
2013-09-01 09:28:00,52.7,50.0,29.42,SSE,158,0.0,0.0,90,0.00,,,0.00,WUHU216HW,2013-09-01 17:28:00,
2013-09-01 09:33:00,52.8,49.6,29.42,SSE,158,0.0,0.0,89,0.00,,,0.00,WUHU216HW,2013-09-01 17:33:00,
2013-09-01 09:38:00,53.2,50.0,29.42,SSE,158,0.0,0.0,89,0.00,,,0.00,WUHU216HW,2013-09-01 17:38:00,
2013-09-01 09:43:00,53.4,50.2,29.42,SSE,158,0.0,0.0,89,0.00,,,0.00,WUHU216HW,2013-09-01 17:43:00,
2013-09-01 09:48:00,53.6,50.4,29.42,SSE,158,0.0,0.6,89,0.00,,,0.00,WUHU216HW,2013-09-01 17:48:00,
2013-09-01 09:53:00,53.9,50.7,29.42,SSE,158,0.0,0.6,89,0.00,,,0.00,WUHU216HW,2013-09-01 17:53:00,
2013-09-01 09:58:00,54.3,50.9,29.42,SSE,158,0.0,0.2,89,0.00,,,0.00,WUHU216HW,2013-09-01 17:58:00,
2013-09-01 10:03:00,54.3,51.1,29.43,SSE,158,0.0,0.2,89,0.00,,,0.00,WUHU216HW,2013-09-01 18:03:00,
2013-09-01 10:08:00,54.6,51.4,29.43,SSE,158,0.0,0.0,89,0.00,,,0.00,WUHU216HW,2013-09-01 18:08:00,
2013-09-01 10:13:00,55.0,51.8,29.43,SSE,158,0.0,0.0,89,0.00,,,0.00,WUHU216HW,2013-09-01 18:13:00,
2013-09-01 10:18:00,55.2,51.6,29.43,SSE,158,0.0,0.0,88,0.00,,,0.00,WUHU216HW,2013-09-01 18:18:00,
2013-09-01 10:23:00,55.7,52.2,29.42,SSE,158,0.0,0.0,88,0.00,,,0.00,WUHU216HW,2013-09-01 18:23:00,
2013-09-01 10:28:00,56.1,52.2,29.43,SSE,158,0.0,0.0,87,0.00,,,0.00,WUHU216HW,2013-09-01 18:28:00,
2013-09-01 10:33:00,56.3,52.4,29.43,SSE,158,0.0,0.0,87,0.00,,,0.00,WUHU216HW,2013-09-01 18:33:00,
2013-09-01 10:38:00,56.8,52.9,29.43,SSE,158,0.0,0.0,87,0.00,,,0.00,WUHU216HW,2013-09-01 18:38:00,
2013-09-01 10:43:00,57.3,53.2,29.42,WSW,248,0.0,0.0,87,0.00,,,0.00,WUHU216HW,2013-09-01 18:43:00,
2013-09-01 10:48:00,57.9,53.7,29.43,West,270,0.0,0.0,86,0.00,,,0.00,WUHU216HW,2013-09-01 18:48:00,
2013-09-01 10:53:00,58.4,53.6,29.43,WSW,248,0.0,0.0,84,0.00,,,0.00,WUHU216HW,2013-09-01 18:53:00,
2013-09-01 10:58:00,58.8,52.7,29.43,SSW,203,0.0,0.0,80,0.00,,,0.00,WUHU216HW,2013-09-01 18:58:00,
2013-09-01 11:03:00,58.8,52.3,29.43,SW,225,0.0,0.0,79,0.00,,,0.00,WUHU216HW,2013-09-01 19:03:00,
2013-09-01 11:08:00,58.8,51.9,29.43,SSW,203,2.0,2.0,78,0.00,,,0.00,WUHU216HW,2013-09-01 19:08:00,
2013-09-01 11:13:00,58.8,51.9,29.43,WSW,248,2.9,2.9,78,0.00,,,0.00,WUHU216HW,2013-09-01 19:13:00,
2013-09-01 11:18:00,58.8,51.9,29.44,WSW,248,0.2,2.9,78,0.00,,,0.00,WUHU216HW,2013-09-01 19:18:00,
2013-09-01 11:23:00,58.8,51.6,29.44,SSE,158,0.0,2.9,77,0.00,,,0.00,WUHU216HW,2013-09-01 19:23:00,
2013-09-01 11:28:00,58.8,51.6,29.44,South,180,0.8,0.8,77,0.00,,,0.00,WUHU216HW,2013-09-01 19:28:00,
2013-09-01 11:33:00,58.8,51.6,29.44,West,270,0.0,0.8,77,0.00,,,0.00,WUHU216HW,2013-09-01 19:33:00,
2013-09-01 11:38:00,58.8,51.6,29.44,SSW,203,0.0,0.8,77,0.00,,,0.00,WUHU216HW,2013-09-01 19:38:00,
2013-09-01 11:43:00,58.2,51.0,29.44,SW,225,0.0,0.0,76,0.00,,,0.00,WUHU216HW,2013-09-01 19:43:00,
2013-09-01 11:48:00,57.9,50.7,29.44,SW,225,2.4,2.4,77,0.00,,,0.00,WUHU216HW,2013-09-01 19:48:00,
2013-09-01 11:53:00,57.5,50.3,29.44,WSW,248,0.0,2.4,77,0.00,,,0.00,WUHU216HW,2013-09-01 19:53:00,
2013-09-01 11:58:00,57.0,49.8,29.44,West,270,0.8,2.4,77,0.00,,,0.00,WUHU216HW,2013-09-01 19:58:00,
2013-09-01 12:03:00,57.0,50.1,29.44,West,270,0.0,0.8,78,0.00,,,0.00,WUHU216HW,2013-09-01 20:03:00,
2013-09-01 12:08:00,57.0,50.1,29.43,SW,225,1.3,1.3,78,0.00,,,0.00,WUHU216HW,2013-09-01 20:08:00,
2013-09-01 12:13:00,57.3,50.9,29.43,SSE,158,0.0,1.3,79,0.00,,,0.00,WUHU216HW,2013-09-01 20:13:00,
2013-09-01 12:18:00,57.5,51.0,29.43,West,270,0.8,1.5,79,0.00,,,0.00,WUHU216HW,2013-09-01 20:18:00,
2013-09-01 12:23:00,57.9,51.4,29.43,WNW,293,0.0,1.5,79,0.00,,,0.00,WUHU216HW,2013-09-01 20:23:00,
2013-09-01 12:28:00,58.4,52.3,29.43,NW,315,0.0,0.8,80,0.00,,,0.00,WUHU216HW,2013-09-01 20:28:00,
2013-09-01 12:33:00,59.5,53.0,29.43,WNW,293,0.0,1.1,79,0.00,,,0.00,WUHU216HW,2013-09-01 20:33:00,
2013-09-01 12:38:00,60.0,53.6,29.43,WSW,248,0.0,1.1,79,0.00,,,0.00,WUHU216HW,2013-09-01 20:38:00,
2013-09-01 12:43:00,60.6,53.4,29.43,SSW,203,0.0,0.0,77,0.00,,,0.00,WUHU216HW,2013-09-01 20:43:00,
2013-09-01 12:48:00,60.6,53.0,29.43,WNW,293,0.0,1.7,76,0.00,,,0.00,WUHU216HW,2013-09-01 20:48:00,
2013-09-01 12:53:00,60.6,53.4,29.43,NW,315,3.3,3.3,77,0.00,,,0.00,WUHU216HW,2013-09-01 20:53:00,
2013-09-01 12:58:00,60.6,53.4,29.43,SW,225,1.3,3.3,77,0.00,,,0.00,WUHU216HW,2013-09-01 20:58:00,
2013-09-01 13:03:00,60.6,53.4,29.43,West,270,0.0,1.3,77,0.00,,,0.00,WUHU216HW,2013-09-01 21:03:00,
2013-09-01 13:08:00,60.6,53.4,29.43,WSW,248,3.1,3.1,77,0.00,,,0.00,WUHU216HW,2013-09-01 21:08:00,
2013-09-01 13:13:00,60.6,53.0,29.43,WSW,248,0.0,3.1,76,0.00,,,0.00,WUHU216HW,2013-09-01 21:13:00,
2013-09-01 13:18:00,60.6,53.0,29.43,WSW,248,0.0,0.8,76,0.00,,,0.00,WUHU216HW,2013-09-01 21:18:00,
2013-09-01 13:23:00,60.6,53.0,29.43,WSW,248,2.6,2.6,76,0.00,,,0.00,WUHU216HW,2013-09-01 21:23:00,
2013-09-01 13:28:00,60.6,53.0,29.43,SSW,203,0.0,2.9,76,0.00,,,0.00,WUHU216HW,2013-09-01 21:28:00,
2013-09-01 13:33:00,60.6,53.0,29.43,SSW,203,0.0,2.9,76,0.00,,,0.00,WUHU216HW,2013-09-01 21:33:00,
2013-09-01 13:38:00,60.9,53.4,29.43,WSW,248,0.0,1.1,76,0.00,,,0.00,WUHU216HW,2013-09-01 21:38:00,
2013-09-01 13:43:00,60.9,53.0,29.43,South,180,2.0,2.0,75,0.00,,,0.00,WUHU216HW,2013-09-01 21:43:00,
2013-09-01 13:48:00,60.9,53.0,29.42,SW,225,0.0,2.0,75,0.00,,,0.00,WUHU216HW,2013-09-01 21:48:00,
2013-09-01 13:53:00,61.3,53.3,29.42,WSW,248,0.0,2.0,75,0.00,,,0.00,WUHU216HW,2013-09-01 21:53:00,
2013-09-01 13:58:00,61.5,53.5,29.43,WSW,248,0.0,0.0,75,0.00,,,0.00,WUHU216HW,2013-09-01 21:58:00,
2013-09-01 14:03:00,61.5,53.1,29.43,NW,315,1.7,1.7,74,0.00,,,0.00,WUHU216HW,2013-09-01 22:03:00,
2013-09-01 14:08:00,61.5,53.1,29.43,West,270,0.0,1.7,74,0.00,,,0.00,WUHU216HW,2013-09-01 22:08:00,
2013-09-01 14:13:00,61.7,53.3,29.42,WNW,293,2.2,7.1,74,0.00,,,0.00,WUHU216HW,2013-09-01 22:13:00,
2013-09-01 14:18:00,62.0,53.6,29.42,WNW,293,0.0,7.1,74,0.00,,,0.00,WUHU216HW,2013-09-01 22:18:00,
2013-09-01 14:23:00,62.4,53.9,29.42,WSW,248,0.0,4.4,74,0.00,,,0.00,WUHU216HW,2013-09-01 22:23:00,
2013-09-01 14:28:00,62.7,53.9,29.42,WNW,293,0.0,1.1,72,0.00,,,0.00,WUHU216HW,2013-09-01 22:28:00,
2013-09-01 14:33:00,62.7,53.6,29.42,SW,225,1.3,2.0,72,0.00,,,0.00,WUHU216HW,2013-09-01 22:33:00,
2013-09-01 14:38:00,62.4,53.2,29.42,WSW,248,0.0,2.0,72,0.00,,,0.00,WUHU216HW,2013-09-01 22:38:00,
2013-09-01 14:43:00,62.4,53.6,29.42,WNW,293,0.0,1.3,73,0.00,,,0.00,WUHU216HW,2013-09-01 22:43:00,
2013-09-01 14:48:00,62.4,53.6,29.42,West,270,0.4,1.1,73,0.00,,,0.00,WUHU216HW,2013-09-01 22:48:00,
2013-09-01 14:53:00,62.4,53.6,29.42,SSW,203,1.3,1.3,73,0.00,,,0.00,WUHU216HW,2013-09-01 22:53:00,
2013-09-01 14:58:00,61.7,52.9,29.42,SSW,203,0.0,1.3,73,0.00,,,0.00,WUHU216HW,2013-09-01 22:58:00,
2013-09-01 15:03:00,61.5,53.1,29.42,NW,315,0.0,1.5,74,0.00,,,0.00,WUHU216HW,2013-09-01 23:03:00,
2013-09-01 15:08:00,61.3,53.0,29.42,NW,315,0.0,1.5,74,0.00,,,0.00,WUHU216HW,2013-09-01 23:08:00,
2013-09-01 15:13:00,61.1,53.2,29.42,NW,315,0.0,0.4,75,0.00,,,0.00,WUHU216HW,2013-09-01 23:13:00,
2013-09-01 15:18:00,61.1,53.5,29.41,WNW,293,2.9,2.9,76,0.00,,,0.00,WUHU216HW,2013-09-01 23:18:00,
2013-09-01 15:23:00,61.5,53.5,29.42,NW,315,2.6,2.9,75,0.00,,,0.00,WUHU216HW,2013-09-01 23:23:00,
2013-09-01 15:28:00,61.5,53.5,29.41,WNW,293,0.0,3.5,75,0.00,,,0.00,WUHU216HW,2013-09-01 23:28:00,
2013-09-01 15:33:00,61.5,53.1,29.41,WNW,293,0.6,3.5,74,0.00,,,0.00,WUHU216HW,2013-09-01 23:33:00,
2013-09-01 15:38:00,61.5,53.1,29.41,NW,315,1.1,1.1,74,0.00,,,0.00,WUHU216HW,2013-09-01 23:38:00,
2013-09-01 15:43:00,61.5,53.1,29.41,NW,315,1.1,1.7,74,0.00,,,0.00,WUHU216HW,2013-09-01 23:43:00,
2013-09-01 15:48:00,61.5,53.5,29.40,WNW,293,0.0,1.7,75,0.00,,,0.00,WUHU216HW,2013-09-01 23:48:00,
2013-09-01 15:53:00,61.7,53.3,29.40,WNW,293,0.0,1.1,74,0.00,,,0.00,WUHU216HW,2013-09-01 23:53:00,
2013-09-01 15:58:00,61.8,53.4,29.40,WNW,293,0.0,2.4,74,0.00,,,0.00,WUHU216HW,2013-09-01 23:58:00,
2013-09-01 16:03:00,62.0,53.6,29.40,WNW,293,0.0,2.4,74,0.00,,,0.00,WUHU216HW,2013-09-02 00:03:00,
2013-09-01 16:08:00,62.0,53.6,29.40,WNW,293,0.0,0.0,74,0.00,,,0.00,WUHU216HW,2013-09-02 00:08:00,
2013-09-01 16:13:00,61.7,53.3,29.40,WNW,293,0.0,0.0,74,0.00,,,0.00,WUHU216HW,2013-09-02 00:13:00,
2013-09-01 16:18:00,61.5,53.1,29.39,WNW,293,0.0,0.0,74,0.00,,,0.00,WUHU216HW,2013-09-02 00:18:00,
2013-09-01 16:23:00,61.5,53.1,29.39,WNW,293,1.1,1.1,74,0.00,,,0.00,WUHU216HW,2013-09-02 00:23:00,
2013-09-01 16:28:00,61.3,53.0,29.39,WNW,293,0.0,1.1,74,0.00,,,0.00,WUHU216HW,2013-09-02 00:28:00,
2013-09-01 16:33:00,61.1,53.2,29.39,WNW,293,0.0,0.0,75,0.00,,,0.00,WUHU216HW,2013-09-02 00:33:00,
2013-09-01 16:38:00,60.9,53.0,29.39,WNW,293,0.4,0.4,75,0.00,,,0.00,WUHU216HW,2013-09-02 00:38:00,
2013-09-01 16:43:00,60.9,53.4,29.39,NW,315,2.6,2.6,76,0.00,,,0.00,WUHU216HW,2013-09-02 00:43:00,
2013-09-01 16:48:00,60.9,53.4,29.39,WNW,293,0.0,2.9,76,0.00,,,0.00,WUHU216HW,2013-09-02 00:48:00,
2013-09-01 16:53:00,60.6,53.0,29.39,WSW,248,0.0,2.9,76,0.00,,,0.00,WUHU216HW,2013-09-02 00:53:00,
2013-09-01 16:58:00,60.4,53.0,29.39,NW,315,5.3,5.3,76,0.00,,,0.00,WUHU216HW,2013-09-02 00:58:00,
2013-09-01 17:03:00,60.0,52.5,29.39,NNW,338,2.0,5.3,76,0.00,,,0.00,WUHU216HW,2013-09-02 01:03:00,
2013-09-01 17:08:00,59.9,52.7,29.39,WNW,293,1.3,5.3,77,0.00,,,0.00,WUHU216HW,2013-09-02 01:08:00,
2013-09-01 17:13:00,59.5,52.3,29.39,WNW,293,0.8,2.0,77,0.00,,,0.00,WUHU216HW,2013-09-02 01:13:00,
2013-09-01 17:18:00,59.5,52.3,29.39,WNW,293,0.2,1.3,77,0.00,,,0.00,WUHU216HW,2013-09-02 01:18:00,
2013-09-01 17:23:00,59.3,52.5,29.39,WSW,248,0.0,0.8,78,0.00,,,0.00,WUHU216HW,2013-09-02 01:23:00,
2013-09-01 17:28:00,59.5,52.7,29.38,NW,315,0.0,0.2,78,0.00,,,0.00,WUHU216HW,2013-09-02 01:28:00,
2013-09-01 17:33:00,59.5,52.3,29.38,WNW,293,1.3,1.3,77,0.00,,,0.00,WUHU216HW,2013-09-02 01:33:00,
2013-09-01 17:38:00,59.7,52.5,29.38,WNW,293,0.6,1.3,77,0.00,,,0.00,WUHU216HW,2013-09-02 01:38:00,
2013-09-01 17:43:00,59.7,52.1,29.38,NW,315,0.0,1.3,76,0.00,,,0.00,WUHU216HW,2013-09-02 01:43:00,
2013-09-01 17:48:00,59.7,52.1,29.37,NW,315,0.0,0.6,76,0.00,,,0.00,WUHU216HW,2013-09-02 01:48:00,
2013-09-01 17:53:00,59.9,52.7,29.37,NW,315,0.0,0.0,77,0.00,,,0.00,WUHU216HW,2013-09-02 01:53:00,
2013-09-01 17:58:00,59.7,52.1,29.37,WNW,293,1.5,2.2,76,0.00,,,0.00,WUHU216HW,2013-09-02 01:58:00,
2013-09-01 18:03:00,59.5,51.9,29.37,WNW,293,0.0,2.2,76,0.00,,,0.00,WUHU216HW,2013-09-02 02:03:00,
2013-09-01 18:08:00,59.1,51.6,29.37,WNW,293,0.0,1.5,76,0.00,,,0.00,WUHU216HW,2013-09-02 02:08:00,
2013-09-01 18:13:00,59.1,51.9,29.37,WNW,293,0.0,0.0,77,0.00,,,0.00,WUHU216HW,2013-09-02 02:13:00,
2013-09-01 18:18:00,59.1,51.9,29.37,WNW,293,0.0,0.0,77,0.00,,,0.00,WUHU216HW,2013-09-02 02:18:00,
2013-09-01 18:23:00,58.8,51.6,29.37,WNW,293,0.0,2.0,77,0.00,,,0.00,WUHU216HW,2013-09-02 02:23:00,
2013-09-01 18:28:00,58.8,51.6,29.37,WNW,293,0.0,2.0,77,0.00,,,0.00,WUHU216HW,2013-09-02 02:28:00,
2013-09-01 18:33:00,58.8,51.6,29.37,WNW,293,0.0,0.0,77,0.00,,,0.00,WUHU216HW,2013-09-02 02:33:00,
2013-09-01 18:38:00,58.8,51.9,29.37,WNW,293,0.0,2.0,78,0.00,,,0.00,WUHU216HW,2013-09-02 02:38:00,
2013-09-01 18:43:00,58.6,51.8,29.37,WNW,293,1.5,2.0,78,0.00,,,0.00,WUHU216HW,2013-09-02 02:43:00,
2013-09-01 18:48:00,58.4,51.6,29.37,WNW,293,0.0,2.6,78,0.00,,,0.00,WUHU216HW,2013-09-02 02:48:00,
2013-09-01 18:53:00,58.2,51.4,29.37,WNW,293,0.0,2.6,78,0.00,,,0.00,WUHU216HW,2013-09-02 02:53:00,
2013-09-01 18:58:00,58.1,51.2,29.36,WNW,293,0.4,0.6,78,0.00,,,0.00,WUHU216HW,2013-09-02 02:58:00,
2013-09-01 19:03:00,58.1,51.6,29.37,NW,315,0.8,0.8,79,0.00,,,0.00,WUHU216HW,2013-09-02 03:03:00,
2013-09-01 19:08:00,58.1,51.6,29.36,NW,315,0.0,0.8,79,0.00,,,0.00,WUHU216HW,2013-09-02 03:08:00,
2013-09-01 19:13:00,57.7,51.2,29.36,NNW,338,0.0,0.0,79,0.00,,,0.00,WUHU216HW,2013-09-02 03:13:00,
2013-09-01 19:18:00,57.5,51.0,29.36,NNW,338,0.0,0.0,79,0.00,,,0.00,WUHU216HW,2013-09-02 03:18:00,
2013-09-01 19:23:00,57.3,50.9,29.36,NNW,338,0.0,0.0,79,0.00,,,0.00,WUHU216HW,2013-09-02 03:23:00,
2013-09-01 19:28:00,57.3,50.9,29.36,NNW,338,0.0,0.0,79,0.00,,,0.00,WUHU216HW,2013-09-02 03:28:00,
2013-09-01 19:33:00,57.2,50.7,29.37,NNW,338,0.0,0.0,79,0.00,,,0.00,WUHU216HW,2013-09-02 03:33:00,
2013-09-01 19:38:00,57.2,50.7,29.37,NNW,338,0.0,0.0,79,0.00,,,0.00,WUHU216HW,2013-09-02 03:38:00,
2013-09-01 19:43:00,57.0,50.5,29.37,NNW,338,0.0,0.0,79,0.00,,,0.00,WUHU216HW,2013-09-02 03:43:00,
2013-09-01 19:48:00,56.8,50.7,29.37,NNW,338,0.0,0.0,80,0.00,,,0.00,WUHU216HW,2013-09-02 03:48:00,
2013-09-01 19:53:00,56.8,50.7,29.37,NNW,338,0.0,0.8,80,0.00,,,0.00,WUHU216HW,2013-09-02 03:53:00,
2013-09-01 19:58:00,56.4,50.3,29.37,NW,315,0.0,0.8,80,0.00,,,0.00,WUHU216HW,2013-09-02 03:58:00,
2013-09-01 20:01:00,56.3,50.5,29.37,NW,315,0.0,0.0,81,0.00,,,0.00,WUHU216HW,2013-09-02 04:01:00,
2013-09-01 20:03:00,56.1,50.3,29.37,NW,315,0.0,0.0,81,0.00,,,0.00,WUHU216HW,2013-09-02 04:03:00,
2013-09-01 20:08:00,55.9,50.1,29.37,NW,315,0.0,0.0,81,0.00,,,0.00,WUHU216HW,2013-09-02 04:08:00,